Time;durP1;ratioP1;P1;durP2;ratioP2;P2;SDS_P1;SDS_P2;PMS_P1;PMS_P2;Temp;Humidity;BMP_temperature;BMP_pressure;BME280_temperature;BME280_humidity;BME280_pressure;Samples;Min_cycle;Max_cycle;Signal;HPM_P1;HPM_P2
2021/11/10 00:00:09;;;;;;;;;;;9.80;99.90;;;;;;5075252;28;19959;-76
2021/11/10 00:02:35;;;;;;;;;;;9.80;99.90;;;;;;5074468;28;19952;-76
2021/11/10 00:05:01;;;;;;;;;;;9.80;99.90;;;;;;5073760;28;21456;-76
2021/11/10 00:07:27;;;;;;;;;;;9.80;99.90;;;;;;5073364;28;19921;-76
2021/11/10 00:09:52;;;;;;;;;;;9.80;99.90;;;;;;5073461;28;19927;-76
2021/11/10 00:12:18;;;;;;;;;;;9.80;99.90;;;;;;5087995;28;20196;-76
2021/11/10 00:14:44;;;;;;;;;;;9.80;99.90;;;;;;5073140;28;19912;-76
2021/11/10 00:17:09;;;;;;;;;;;9.80;99.90;;;;;;5075884;28;19938;-76
2021/11/10 00:19:35;;;;;;;;;;;9.80;99.90;;;;;;5071606;28;19973;-76
2021/11/10 00:22:00;;;;;;;;;;;9.70;99.90;;;;;;5073646;28;20322;-76
2021/11/10 00:24:26;;;;;;;;;;;9.80;99.90;;;;;;5076776;28;20003;-76
2021/11/10 00:26:52;;;;;;;;;;;9.70;99.90;;;;;;5071722;28;20260;-76
2021/11/10 00:29:17;;;;;;;;;;;9.70;99.90;;;;;;5073500;28;20329;-77
2021/11/10 00:31:43;;;;;;;;;;;9.70;99.90;;;;;;5085820;28;20342;-77
2021/11/10 00:34:08;;;;;;;;;;;9.70;99.90;;;;;;5075666;28;20337;-77
2021/11/10 00:36:34;;;;;;;;;;;9.70;99.90;;;;;;5071643;28;19943;-76
2021/11/10 00:39:00;;;;;;;;;;;9.70;99.90;;;;;;5073066;28;19928;-76
2021/11/10 00:41:25;;;;;;;;;;;9.60;99.90;;;;;;5073129;28;19920;-76
2021/11/10 00:43:51;;;;;;;;;;;9.60;99.90;;;;;;5077487;28;20227;-77
2021/11/10 00:46:16;;;;;;;;;;;9.60;99.90;;;;;;5074040;28;20830;-76
2021/11/10 00:48:42;;;;;;;;;;;9.60;99.90;;;;;;5084538;28;19912;-76
2021/11/10 00:51:08;;;;;;;;;;;9.60;99.90;;;;;;5074418;28;19919;-77
2021/11/10 00:53:33;;;;;;;;;;;9.70;99.90;;;;;;5073929;28;20246;-77
2021/11/10 00:55:59;;;;;;;;;;;9.70;99.90;;;;;;5073382;28;20208;-76
2021/11/10 00:58:25;;;;;;;;;;;9.70;99.90;;;;;;5073731;28;19921;-76
2021/11/10 01:00:50;;;;;;;;;;;9.70;99.90;;;;;;5071647;28;19923;-76
2021/11/10 01:03:16;;;;;;;;;;;9.70;99.90;;;;;;5072454;28;19959;-76
2021/11/10 01:05:42;;;;;;;;;;;9.70;99.90;;;;;;5073850;28;19947;-76
2021/11/10 01:08:09;;;;;;;;;;;9.70;99.90;;;;;;5071275;28;20007;-76
2021/11/10 01:10:35;;;;;;;;;;;9.70;99.90;;;;;;5088465;28;19913;-76
2021/11/10 01:13:02;;;;;;;;;;;9.70;99.90;;;;;;5073409;28;19999;-76
2021/11/10 01:15:28;;;;;;;;;;;9.70;99.90;;;;;;5071778;28;19955;-76
2021/11/10 01:17:54;;;;;;;;;;;9.70;99.90;;;;;;5074496;28;20243;-77
2021/11/10 01:20:19;;;;;;;;;;;9.70;99.90;;;;;;5083776;28;19974;-76
2021/11/10 01:22:45;;;;;;;;;;;9.70;99.90;;;;;;5073577;28;19968;-76
2021/11/10 01:25:11;;;;;;;;;;;9.70;99.90;;;;;;5073146;28;19959;-76
2021/11/10 01:27:37;;;;;;;;;;;9.80;99.90;;;;;;5074657;28;20191;-76
2021/11/10 01:30:04;;;;;;;;;;;9.80;99.90;;;;;;5071561;28;19931;-76
2021/11/10 01:32:29;;;;;;;;;;;9.80;99.90;;;;;;5075005;28;19912;-76
2021/11/10 01:34:55;;;;;;;;;;;9.70;99.90;;;;;;5072269;28;20314;-76
2021/11/10 01:37:20;;;;;;;;;;;9.60;99.90;;;;;;5073534;28;19921;-76
2021/11/10 01:39:46;;;;;;;;;;;9.70;99.90;;;;;;5071865;28;20370;-76
2021/11/10 01:42:12;;;;;;;;;;;9.60;99.90;;;;;;5072743;28;20299;-76
2021/11/10 01:44:38;;;;;;;;;;;9.70;99.90;;;;;;5073911;28;20326;-76
2021/11/10 01:47:06;;;;;;;;;;;9.70;99.90;;;;;;5072766;28;20303;-76
2021/11/10 01:49:32;;;;;;;;;;;9.70;99.90;;;;;;5072738;28;20238;-76
2021/11/10 01:51:58;;;;;;;;;;;9.70;99.90;;;;;;5075284;28;19912;-76
2021/11/10 01:54:25;;;;;;;;;;;9.60;99.90;;;;;;5071437;28;19930;-75
2021/11/10 01:56:51;;;;;;;;;;;9.60;99.90;;;;;;5070805;28;20227;-76
2021/11/10 01:59:29;;;;;;;;;;;9.60;99.90;;;;;;5074316;28;19912;-76
2021/11/10 02:01:55;;;;;;;;;;;9.60;99.90;;;;;;5074982;28;20009;-76
2021/11/10 02:04:21;;;;;;;;;;;9.60;99.90;;;;;;5071306;28;20049;-76
2021/11/10 02:06:46;;;;;;;;;;;9.60;99.90;;;;;;5071813;28;19942;-76
2021/11/10 02:09:12;;;;;;;;;;;9.60;99.90;;;;;;5072298;28;20307;-76
2021/11/10 02:11:39;;;;;;;;;;;9.60;99.90;;;;;;5073764;28;20303;-76
2021/11/10 02:14:05;;;;;;;;;;;9.60;99.90;;;;;;5074089;28;19962;-76
2021/11/10 02:16:31;;;;;;;;;;;9.50;99.90;;;;;;5073996;28;19916;-76
2021/11/10 02:18:56;;;;;;;;;;;9.50;99.90;;;;;;5071517;28;19917;-77
2021/11/10 02:21:22;;;;;;;;;;;9.50;99.90;;;;;;5086797;28;20321;-76
2021/11/10 02:23:48;;;;;;;;;;;9.60;99.90;;;;;;5070591;28;20321;-76
2021/11/10 02:26:15;;;;;;;;;;;9.60;99.90;;;;;;5068819;28;19912;-76
2021/11/10 02:28:41;;;;;;;;;;;9.60;99.90;;;;;;5084369;28;19912;-76
2021/11/10 02:31:07;;;;;;;;;;;9.50;99.90;;;;;;5072950;28;19962;-76
2021/11/10 02:33:33;;;;;;;;;;;9.50;99.90;;;;;;5071667;28;19923;-77
2021/11/10 02:36:00;;;;;;;;;;;9.50;99.90;;;;;;5073228;28;19981;-76
2021/11/10 02:38:26;;;;;;;;;;;9.50;99.90;;;;;;5069087;28;19928;-76
2021/11/10 02:40:53;;;;;;;;;;;9.60;99.90;;;;;;5072461;28;19924;-76
2021/11/10 02:43:18;;;;;;;;;;;9.60;99.90;;;;;;5071022;28;19912;-76
2021/11/10 02:45:44;;;;;;;;;;;9.60;99.90;;;;;;5072035;28;19922;-76
2021/11/10 02:48:09;;;;;;;;;;;9.60;99.90;;;;;;5072789;28;19924;-76
2021/11/10 02:50:35;;;;;;;;;;;9.60;99.90;;;;;;5074451;28;19942;-76
2021/11/10 02:53:01;;;;;;;;;;;9.60;99.90;;;;;;5072649;28;20007;-76
2021/11/10 02:55:27;;;;;;;;;;;9.60;99.90;;;;;;5072293;28;19984;-77
2021/11/10 02:57:53;;;;;;;;;;;9.60;99.90;;;;;;5071452;28;19924;-76
2021/11/10 03:00:19;;;;;;;;;;;9.60;99.90;;;;;;5074742;28;19916;-77
2021/11/10 03:02:44;;;;;;;;;;;9.60;99.90;;;;;;5071390;28;20345;-76
2021/11/10 03:05:10;;;;;;;;;;;9.60;99.90;;;;;;5071220;28;19967;-76
2021/11/10 03:07:36;;;;;;;;;;;9.60;99.90;;;;;;5073493;28;20214;-77
2021/11/10 03:10:02;;;;;;;;;;;9.60;99.90;;;;;;5073064;28;20306;-76
2021/11/10 03:12:27;;;;;;;;;;;9.60;99.90;;;;;;5071731;28;20314;-76
2021/11/10 03:14:53;;;;;;;;;;;9.50;99.90;;;;;;5073444;28;19931;-79
2021/11/10 03:17:20;;;;;;;;;;;9.50;99.90;;;;;;5074045;28;19913;-76
2021/11/10 03:19:46;;;;;;;;;;;9.50;99.90;;;;;;5074187;28;19931;-77
2021/11/10 03:22:12;;;;;;;;;;;9.50;99.90;;;;;;5075759;28;20349;-76
2021/11/10 03:24:38;;;;;;;;;;;9.50;99.90;;;;;;5076165;28;19916;-77
2021/11/10 03:27:03;;;;;;;;;;;9.50;99.90;;;;;;5075862;28;20211;-76
2021/11/10 03:29:29;;;;;;;;;;;9.50;99.90;;;;;;5073850;28;20235;-76
2021/11/10 03:31:55;;;;;;;;;;;9.40;99.90;;;;;;5073444;28;20311;-76
2021/11/10 03:34:21;;;;;;;;;;;9.40;99.90;;;;;;5075333;28;20263;-76
2021/11/10 03:36:47;;;;;;;;;;;9.40;99.90;;;;;;5073855;28;19971;-76
2021/11/10 03:39:14;;;;;;;;;;;9.40;99.90;;;;;;5072901;28;19921;-76
2021/11/10 03:41:40;;;;;;;;;;;9.40;99.90;;;;;;5074604;28;20286;-76
2021/11/10 03:44:06;;;;;;;;;;;9.40;99.90;;;;;;5078378;28;19952;-76
2021/11/10 03:46:32;;;;;;;;;;;9.40;99.90;;;;;;5076881;28;19916;-77
2021/11/10 03:48:58;;;;;;;;;;;9.40;99.90;;;;;;5071164;28;19919;-76
2021/11/10 03:51:23;;;;;;;;;;;9.40;99.90;;;;;;5074860;28;19936;-76
2021/11/10 03:53:49;;;;;;;;;;;9.30;99.90;;;;;;5074929;28;20488;-76
2021/11/10 03:56:15;;;;;;;;;;;9.30;99.90;;;;;;5075187;28;20325;-76
2021/11/10 03:58:41;;;;;;;;;;;9.30;99.90;;;;;;5075055;28;19920;-76
2021/11/10 04:01:07;;;;;;;;;;;9.30;99.90;;;;;;5076471;28;19924;-76
2021/11/10 04:03:33;;;;;;;;;;;9.30;99.90;;;;;;5075928;28;20235;-76
2021/11/10 04:05:59;;;;;;;;;;;9.20;99.90;;;;;;5072669;28;19965;-76
2021/11/10 04:08:25;;;;;;;;;;;9.20;99.90;;;;;;5077683;28;19958;-76
2021/11/10 04:10:51;;;;;;;;;;;9.20;99.90;;;;;;5075063;28;19947;-76
2021/11/10 04:13:16;;;;;;;;;;;9.20;99.90;;;;;;5075437;28;19912;-76
2021/11/10 04:15:42;;;;;;;;;;;9.20;99.90;;;;;;5074460;28;19916;-76
2021/11/10 04:18:08;;;;;;;;;;;9.10;99.90;;;;;;5075496;28;19965;-76
2021/11/10 04:20:33;;;;;;;;;;;9.10;99.90;;;;;;5075754;28;20214;-76
2021/11/10 04:22:59;;;;;;;;;;;9.10;99.90;;;;;;5074463;28;19916;-77
2021/11/10 04:25:25;;;;;;;;;;;9.10;99.90;;;;;;5076470;28;19924;-77
2021/11/10 04:27:51;;;;;;;;;;;9.10;99.90;;;;;;5074628;28;19919;-77
2021/11/10 04:30:17;;;;;;;;;;;9.10;99.90;;;;;;5075578;28;20319;-76
2021/11/10 04:32:43;;;;;;;;;;;9.10;99.90;;;;;;5073412;28;19973;-77
2021/11/10 04:35:10;;;;;;;;;;;9.10;99.90;;;;;;5074434;28;19917;-76
2021/11/10 04:37:36;;;;;;;;;;;9.10;99.90;;;;;;5075819;28;19924;-76
2021/11/10 04:40:02;;;;;;;;;;;9.00;99.90;;;;;;5078029;28;20230;-76
2021/11/10 04:42:29;;;;;;;;;;;9.00;99.90;;;;;;5074417;28;19931;-76
2021/11/10 04:45:03;;;;;;;;;;;9.00;99.90;;;;;;5072888;28;19927;-78
2021/11/10 04:47:29;;;;;;;;;;;9.00;99.90;;;;;;5071129;28;19920;-76
2021/11/10 04:49:55;;;;;;;;;;;9.00;99.90;;;;;;5073995;28;19917;-76
2021/11/10 04:52:21;;;;;;;;;;;9.00;99.90;;;;;;5073696;28;19916;-77
2021/11/10 04:54:46;;;;;;;;;;;9.00;99.90;;;;;;5073662;28;20007;-76
2021/11/10 04:57:12;;;;;;;;;;;9.00;99.90;;;;;;5074921;28;20268;-76
2021/11/10 04:59:38;;;;;;;;;;;9.00;99.90;;;;;;5072669;28;20306;-76
2021/11/10 05:04:32;;;;;;;;;;;9.00;99.90;;;;;;5072603;28;19923;-76
2021/11/10 05:09:23;;;;;;;;;;;9.00;99.90;;;;;;5072119;28;19913;-77
2021/11/10 05:11:49;;;;;;;;;;;9.00;99.90;;;;;;5071529;28;20222;-76
2021/11/10 05:14:15;;;;;;;;;;;9.00;99.90;;;;;;5071660;28;19920;-76
2021/11/10 05:16:41;;;;;;;;;;;8.90;99.90;;;;;;5076323;28;19989;-76
2021/11/10 05:19:06;;;;;;;;;;;8.80;99.90;;;;;;5070425;28;19923;-76
2021/11/10 05:21:32;;;;;;;;;;;8.80;99.90;;;;;;5073664;28;19931;-75
2021/11/10 05:23:57;;;;;;;;;;;8.70;99.90;;;;;;5069649;28;19926;-76
2021/11/10 05:26:23;;;;;;;;;;;8.70;99.90;;;;;;5084510;28;20219;-77
2021/11/10 05:28:49;;;;;;;;;;;8.70;99.90;;;;;;5069817;28;20322;-76
2021/11/10 05:31:14;;;;;;;;;;;8.70;99.90;;;;;;5072465;28;19916;-76
2021/11/10 05:33:40;;;;;;;;;;;8.70;99.90;;;;;;5068310;28;20329;-76
2021/11/10 05:36:06;;;;;;;;;;;8.60;99.90;;;;;;5071196;28;19919;-76
2021/11/10 05:38:31;;;;;;;;;;;8.60;99.90;;;;;;5071710;28;19928;-76
2021/11/10 05:40:57;;;;;;;;;;;8.60;99.90;;;;;;5073507;28;19927;-76
2021/11/10 05:43:22;;;;;;;;;;;8.60;99.90;;;;;;5073985;28;19919;-76
2021/11/10 05:45:48;;;;;;;;;;;8.60;99.90;;;;;;5073103;28;19913;-76
2021/11/10 05:48:15;;;;;;;;;;;8.50;99.90;;;;;;5074175;28;19958;-76
2021/11/10 05:50:41;;;;;;;;;;;8.50;99.90;;;;;;5072297;28;19944;-77
2021/11/10 05:53:07;;;;;;;;;;;8.50;99.90;;;;;;5072359;28;19916;-77
2021/11/10 05:55:34;;;;;;;;;;;8.50;99.90;;;;;;5072398;28;19966;-76
2021/11/10 05:57:59;;;;;;;;;;;8.60;99.90;;;;;;5071899;28;20374;-76
2021/11/10 06:00:25;;;;;;;;;;;8.50;99.90;;;;;;5074769;28;19931;-76
2021/11/10 06:02:52;;;;;;;;;;;8.50;99.90;;;;;;5087251;28;19955;-76
2021/11/10 06:05:18;;;;;;;;;;;8.50;99.90;;;;;;5071125;28;19920;-76
2021/11/10 06:07:45;;;;;;;;;;;8.50;99.90;;;;;;5072124;28;19966;-76
2021/11/10 06:10:11;;;;;;;;;;;8.50;99.90;;;;;;5073816;28;20018;-77
2021/11/10 06:12:36;;;;;;;;;;;8.50;99.90;;;;;;5075671;28;20017;-76
2021/11/10 06:15:02;;;;;;;;;;;8.50;99.90;;;;;;5073780;28;19963;-76
2021/11/10 06:17:28;;;;;;;;;;;8.40;99.90;;;;;;5072555;28;19962;-76
2021/11/10 06:19:53;;;;;;;;;;;8.40;99.90;;;;;;5083680;28;20261;-76
2021/11/10 06:22:19;;;;;;;;;;;8.40;99.90;;;;;;5072559;28;20344;-76
2021/11/10 06:24:44;;;;;;;;;;;8.40;99.90;;;;;;5070430;28;19920;-76
2021/11/10 06:27:10;;;;;;;;;;;8.50;99.90;;;;;;5073098;28;20363;-76
2021/11/10 06:29:35;;;;;;;;;;;8.40;99.90;;;;;;5071657;28;19920;-78
2021/11/10 06:32:01;;;;;;;;;;;8.40;99.90;;;;;;5073334;28;19912;-76
2021/11/10 06:34:29;;;;;;;;;;;8.40;99.90;;;;;;5072016;28;19912;-76
2021/11/10 06:36:54;;;;;;;;;;;8.40;99.90;;;;;;5083780;28;20396;-76
2021/11/10 06:39:20;;;;;;;;;;;8.40;99.90;;;;;;5071718;28;20019;-77
2021/11/10 06:41:47;;;;;;;;;;;8.30;99.90;;;;;;5073977;28;20011;-77
2021/11/10 06:44:13;;;;;;;;;;;8.40;99.90;;;;;;5074629;28;19917;-76
2021/11/10 06:46:38;;;;;;;;;;;8.40;99.90;;;;;;5073009;28;19924;-76
2021/11/10 06:49:04;;;;;;;;;;;8.30;99.90;;;;;;5075924;28;19966;-76
2021/11/10 06:51:31;;;;;;;;;;;8.30;99.90;;;;;;5074267;28;19920;-76
2021/11/10 06:53:57;;;;;;;;;;;8.40;99.90;;;;;;5073923;28;19912;-76
2021/11/10 06:56:22;;;;;;;;;;;8.30;99.90;;;;;;5077908;28;19916;-77
2021/11/10 06:58:49;;;;;;;;;;;8.30;99.90;;;;;;5089776;28;19917;-76
2021/11/10 07:01:14;;;;;;;;;;;8.30;99.90;;;;;;5076163;28;19916;-76
2021/11/10 07:03:40;;;;;;;;;;;8.30;99.90;;;;;;5076065;28;19957;-76
2021/11/10 07:06:06;;;;;;;;;;;8.30;99.90;;;;;;5077073;28;19913;-76
2021/11/10 07:08:31;;;;;;;;;;;8.40;99.90;;;;;;5076454;28;19920;-77
2021/11/10 07:10:57;;;;;;;;;;;8.40;99.90;;;;;;5075355;28;19982;-76
2021/11/10 07:13:23;;;;;;;;;;;8.40;99.90;;;;;;5075192;28;19913;-82
2021/11/10 07:15:48;;;;;;;;;;;8.40;99.90;;;;;;5088845;28;20000;-76
2021/11/10 07:18:14;;;;;;;;;;;8.40;99.90;;;;;;5073216;28;20192;-76
2021/11/10 07:20:40;;;;;;;;;;;8.50;99.90;;;;;;5076341;28;20329;-76
2021/11/10 07:23:06;;;;;;;;;;;8.50;99.90;;;;;;5075755;28;19919;-76
2021/11/10 07:25:32;;;;;;;;;;;8.50;99.90;;;;;;5076457;28;19913;-76
2021/11/10 07:27:57;;;;;;;;;;;8.50;99.90;;;;;;5075073;28;20218;-76
2021/11/10 07:30:23;;;;;;;;;;;8.50;99.90;;;;;;5077892;28;19912;-76
2021/11/10 07:32:49;;;;;;;;;;;8.50;99.90;;;;;;5074276;28;19912;-76
2021/11/10 07:35:15;;;;;;;;;;;8.50;99.90;;;;;;5084740;28;20306;-76
2021/11/10 07:37:42;;;;;;;;;;;8.50;99.90;;;;;;5075442;28;19928;-76
2021/11/10 07:40:08;;;;;;;;;;;8.50;99.90;;;;;;5075623;28;19916;-77
2021/11/10 07:42:34;;;;;;;;;;;8.50;99.90;;;;;;5076918;28;20223;-77
2021/11/10 07:45:21;;;;;;;;;;;8.50;99.90;;;;;;5077195;28;19916;-76
2021/11/10 07:47:47;;;;;;;;;;;8.50;99.90;;;;;;5076431;28;19920;-77
2021/11/10 07:50:17;;;;;;;;;;;8.50;99.90;;;;;;5073893;28;19920;-76
2021/11/10 07:52:43;;;;;;;;;;;8.50;99.90;;;;;;5073162;28;20252;-76
2021/11/10 07:55:09;;;;;;;;;;;8.50;99.90;;;;;;5073645;28;19956;-76
2021/11/10 07:57:35;;;;;;;;;;;8.50;99.90;;;;;;5073347;28;19921;-76
2021/11/10 08:00:14;;;;;;;;;;;8.50;99.90;;;;;;5073124;28;19924;-76
2021/11/10 08:02:40;;;;;;;;;;;8.50;99.90;;;;;;5084283;28;19912;-76
2021/11/10 08:05:06;;;;;;;;;;;8.50;99.90;;;;;;5074121;28;19920;-76
2021/11/10 08:07:31;;;;;;;;;;;8.50;99.90;;;;;;5074222;28;20341;-76
2021/11/10 08:09:57;;;;;;;;;;;8.60;99.90;;;;;;5075462;28;19913;-79
2021/11/10 08:12:23;;;;;;;;;;;8.60;99.90;;;;;;5077266;28;19919;-76
2021/11/10 08:14:48;;;;;;;;;;;8.60;99.90;;;;;;5071133;28;20315;-77
2021/11/10 08:17:14;;;;;;;;;;;8.70;99.90;;;;;;5072653;28;19913;-76
2021/11/10 08:19:40;;;;;;;;;;;8.80;99.90;;;;;;5073842;28;20203;-76
2021/11/10 08:22:05;;;;;;;;;;;8.80;99.90;;;;;;5073878;28;20011;-76
2021/11/10 08:24:32;;;;;;;;;;;8.90;99.90;;;;;;5073925;28;19913;-76
2021/11/10 08:26:58;;;;;;;;;;;8.90;99.90;;;;;;5087644;28;19913;-76
2021/11/10 08:29:23;;;;;;;;;;;9.00;99.90;;;;;;5074966;28;19913;-76
2021/11/10 08:31:50;;;;;;;;;;;8.90;99.90;;;;;;5070941;28;19917;-76
2021/11/10 08:34:15;;;;;;;;;;;8.90;99.90;;;;;;5073211;28;19916;-76
2021/11/10 08:36:41;;;;;;;;;;;8.90;99.90;;;;;;5073819;28;20314;-90
2021/11/10 08:39:06;;;;;;;;;;;9.00;99.90;;;;;;5072113;28;19934;-76
2021/11/10 08:41:32;;;;;;;;;;;8.90;99.90;;;;;;5074158;28;19946;-76
2021/11/10 08:43:58;;;;;;;;;;;8.90;99.90;;;;;;5073311;28;19912;-75
2021/11/10 08:46:24;;;;;;;;;;;8.90;99.90;;;;;;5073086;28;20002;-76
2021/11/10 08:48:50;;;;;;;;;;;8.90;99.90;;;;;;5072485;28;19917;-76
2021/11/10 08:51:15;;;;;;;;;;;8.90;99.90;;;;;;5072641;28;20329;-76
2021/11/10 08:53:41;;;;;;;;;;;8.90;99.90;;;;;;5072092;28;19917;-75
2021/11/10 08:56:07;;;;;;;;;;;8.90;99.90;;;;;;5073356;28;20322;-76
2021/11/10 08:58:33;;;;;;;;;;;8.90;99.90;;;;;;5071985;28;19912;-76
2021/11/10 09:00:59;;;;;;;;;;;9.00;99.90;;;;;;5074093;28;19923;-77
2021/11/10 09:03:25;;;;;;;;;;;9.00;99.90;;;;;;5073144;28;19991;-76
2021/11/10 09:05:52;;;;;;;;;;;9.00;99.90;;;;;;5074229;28;19928;-76
2021/11/10 09:08:19;;;;;;;;;;;9.10;99.90;;;;;;5073889;28;19940;-76
2021/11/10 09:10:44;;;;;;;;;;;9.10;99.90;;;;;;5074063;28;20019;-76
2021/11/10 09:13:10;;;;;;;;;;;9.10;99.90;;;;;;5073288;28;20008;-76
2021/11/10 09:15:37;;;;;;;;;;;9.10;99.90;;;;;;5073039;28;19939;-76
2021/11/10 09:18:04;;;;;;;;;;;9.10;99.90;;;;;;5073449;28;19920;-76
2021/11/10 09:20:30;;;;;;;;;;;9.10;99.90;;;;;;5071577;28;19924;-78
2021/11/10 09:22:56;;;;;;;;;;;9.20;99.90;;;;;;5073741;28;19912;-76
2021/11/10 09:25:23;;;;;;;;;;;9.20;99.90;;;;;;5073915;28;19965;-76
2021/11/10 09:27:49;;;;;;;;;;;9.20;99.90;;;;;;5074274;28;19920;-76
2021/11/10 09:30:16;;;;;;;;;;;9.20;99.90;;;;;;5073829;28;19917;-76
2021/11/10 09:32:42;;;;;;;;;;;9.20;99.90;;;;;;5071629;28;19916;-75
2021/11/10 09:35:09;;;;;;;;;;;9.20;99.90;;;;;;5072269;28;19923;-76
2021/11/10 09:37:38;;;;;;;;;;;9.20;99.90;;;;;;5068936;28;19944;-77
2021/11/10 09:40:07;;;;;;;;;;;9.20;99.90;;;;;;5072264;28;19951;-76
2021/11/10 09:42:34;;;;;;;;;;;9.20;99.90;;;;;;5071382;28;20003;-76
2021/11/10 09:45:04;;;;;;;;;;;9.20;99.90;;;;;;5071281;28;20276;-77
2021/11/10 09:47:30;;;;;;;;;;;9.20;99.90;;;;;;5071464;28;20219;-76
2021/11/10 09:49:55;;;;;;;;;;;9.30;99.90;;;;;;5073790;28;19920;-76
2021/11/10 09:52:21;;;;;;;;;;;9.30;99.90;;;;;;5072483;28;20303;-76
2021/11/10 09:54:47;;;;;;;;;;;9.30;99.90;;;;;;5074579;28;19919;-77
2021/11/10 09:57:13;;;;;;;;;;;9.30;99.90;;;;;;5073312;28;19930;-76
2021/11/10 09:59:39;;;;;;;;;;;9.30;99.90;;;;;;5072318;28;19916;-77
2021/11/10 10:02:11;;;;;;;;;;;9.30;99.90;;;;;;5068818;28;20223;-77
2021/11/10 10:04:40;;;;;;;;;;;9.40;99.90;;;;;;5086055;28;19916;-76
2021/11/10 10:07:07;;;;;;;;;;;9.40;99.90;;;;;;5078579;28;19920;-75
2021/11/10 10:09:32;;;;;;;;;;;9.40;99.90;;;;;;5074073;28;19958;-76
2021/11/10 10:11:58;;;;;;;;;;;9.40;99.90;;;;;;5071890;28;19924;-76
2021/11/10 10:14:23;;;;;;;;;;;9.50;99.90;;;;;;5072643;28;19916;-76
2021/11/10 10:16:49;;;;;;;;;;;9.50;99.90;;;;;;5065147;28;20015;-76
2021/11/10 10:19:15;;;;;;;;;;;9.60;99.90;;;;;;5067779;28;20298;-76
2021/11/10 10:21:41;;;;;;;;;;;9.60;99.90;;;;;;5075238;28;19984;-75
2021/11/10 10:24:07;;;;;;;;;;;9.60;99.90;;;;;;5072323;28;20252;-76
2021/11/10 10:26:33;;;;;;;;;;;9.70;99.90;;;;;;5071578;28;19912;-76
2021/11/10 10:29:04;;;;;;;;;;;9.80;99.90;;;;;;5082066;28;19923;-76
2021/11/10 10:31:30;;;;;;;;;;;10.00;99.90;;;;;;5072519;28;20401;-76
2021/11/10 10:34:02;;;;;;;;;;;10.10;99.90;;;;;;5069706;28;20011;-75
2021/11/10 10:36:30;;;;;;;;;;;10.10;99.90;;;;;;5077070;28;20317;-77
2021/11/10 10:38:58;;;;;;;;;;;10.20;99.90;;;;;;5078041;28;19921;-77
2021/11/10 10:41:32;;;;;;;;;;;10.30;99.90;;;;;;5081579;28;20003;-76
2021/11/10 10:44:04;;;;;;;;;;;10.30;99.90;;;;;;5072021;28;19913;-77
2021/11/10 10:46:32;;;;;;;;;;;10.30;99.90;;;;;;5070792;28;19924;-76
2021/11/10 10:49:13;;;;;;;;;;;10.40;99.90;;;;;;5076046;28;20307;-75
2021/11/10 10:51:39;;;;;;;;;;;10.50;99.90;;;;;;5089249;28;19916;-77
2021/11/10 10:54:06;;;;;;;;;;;10.50;99.90;;;;;;5071027;28;19916;-76
2021/11/10 10:56:36;;;;;;;;;;;10.60;99.90;;;;;;5079559;28;19912;-77
2021/11/10 10:59:02;;;;;;;;;;;10.70;99.90;;;;;;5072455;28;19913;-76
2021/11/10 11:01:38;;;;;;;;;;;10.70;99.90;;;;;;5077763;28;20222;-76
2021/11/10 11:04:08;;;;;;;;;;;10.80;99.90;;;;;;5076398;28;19919;-76
2021/11/10 11:06:35;;;;;;;;;;;10.80;99.90;;;;;;5076436;28;19916;-77
2021/11/10 11:09:29;;;;;;;;;;;10.80;99.90;;;;;;5074456;28;19981;-76
2021/11/10 11:12:00;;;;;;;;;;;10.90;99.90;;;;;;5071815;28;20699;-77
2021/11/10 11:17:18;;;;;;;;;;;10.90;99.90;;;;;;5075314;28;20007;-76
2021/11/10 11:19:50;;;;;;;;;;;10.90;99.90;;;;;;5072930;28;19912;-77
2021/11/10 11:22:15;;;;;;;;;;;10.90;99.90;;;;;;5075266;28;19916;-76
2021/11/10 11:24:41;;;;;;;;;;;10.90;99.90;;;;;;5074237;28;19928;-76
2021/11/10 11:27:20;;;;;;;;;;;11.00;99.90;;;;;;5074717;28;19958;-76
2021/11/10 11:29:51;;;;;;;;;;;11.00;99.90;;;;;;5075376;28;19928;-76
2021/11/10 11:32:27;;;;;;;;;;;10.90;99.90;;;;;;5072596;28;19912;-76
2021/11/10 11:34:54;;;;;;;;;;;11.00;99.90;;;;;;5074515;28;19967;-77
2021/11/10 11:37:21;;;;;;;;;;;11.00;99.90;;;;;;5074510;28;20021;-77
2021/11/10 11:39:48;;;;;;;;;;;11.00;99.90;;;;;;5075300;28;19932;-77
2021/11/10 11:42:13;;;;;;;;;;;11.10;99.90;;;;;;5073291;28;19913;-76
2021/11/10 11:44:39;;;;;;;;;;;11.10;99.90;;;;;;5074531;28;20323;-77
2021/11/10 11:47:07;;;;;;;;;;;11.10;99.90;;;;;;5073393;28;19924;-76
2021/11/10 11:49:35;;;;;;;;;;;11.10;99.90;;;;;;5073873;28;19916;-76
2021/11/10 11:52:01;;;;;;;;;;;11.10;99.90;;;;;;5074113;28;19920;-76
2021/11/10 11:54:26;;;;;;;;;;;11.10;99.90;;;;;;5077055;28;19939;-77
2021/11/10 11:56:52;;;;;;;;;;;11.10;99.90;;;;;;5074524;28;19916;-77
2021/11/10 11:59:18;;;;;;;;;;;11.10;99.90;;;;;;5074792;28;20261;-76
2021/11/10 12:01:44;;;;;;;;;;;11.20;99.90;;;;;;5075959;28;19917;-76
2021/11/10 12:04:11;;;;;;;;;;;11.20;99.90;;;;;;5071304;28;20192;-76
2021/11/10 12:06:44;;;;;;;;;;;11.20;99.90;;;;;;5074733;28;19946;-76
2021/11/10 12:09:17;;;;;;;;;;;11.20;99.90;;;;;;5073851;28;19939;-77
2021/11/10 12:11:48;;;;;;;;;;;11.20;99.90;;;;;;5069370;28;19925;-76
2021/11/10 12:14:14;;;;;;;;;;;11.20;99.90;;;;;;5074978;28;19913;-77
2021/11/10 12:16:58;;;;;;;;;;;11.20;99.90;;;;;;5078484;28;19923;-76
2021/11/10 12:19:31;;;;;;;;;;;11.10;99.90;;;;;;5077042;28;20007;-76
2021/11/10 12:22:04;;;;;;;;;;;11.00;99.90;;;;;;5057541;28;19970;-76
2021/11/10 12:24:41;;;;;;;;;;;11.00;99.90;;;;;;5075389;28;19917;-76
2021/11/10 12:27:07;;;;;;;;;;;10.90;99.90;;;;;;5074984;28;19920;-76
2021/11/10 12:29:44;;;;;;;;;;;10.90;99.90;;;;;;5077398;28;19921;-76
2021/11/10 12:32:11;;;;;;;;;;;10.90;99.90;;;;;;5073419;28;19916;-76
2021/11/10 12:34:37;;;;;;;;;;;10.90;99.90;;;;;;5072850;28;19912;-76
2021/11/10 12:37:04;;;;;;;;;;;10.90;99.90;;;;;;5072557;28;19917;-77
2021/11/10 12:39:37;;;;;;;;;;;10.80;99.90;;;;;;5074606;28;20374;-76
2021/11/10 12:42:03;;;;;;;;;;;10.80;99.90;;;;;;5073063;28;20192;-76
2021/11/10 12:44:29;;;;;;;;;;;10.80;99.90;;;;;;5073372;28;20003;-76
2021/11/10 12:46:55;;;;;;;;;;;10.80;99.90;;;;;;5073258;28;19973;-77
2021/11/10 12:49:20;;;;;;;;;;;10.80;99.90;;;;;;5070842;28;19917;-76
2021/11/10 12:52:06;;;;;;;;;;;10.80;99.90;;;;;;5073028;28;19912;-76
2021/11/10 12:54:31;;;;;;;;;;;10.80;99.90;;;;;;5073960;28;19962;-76
2021/11/10 12:56:57;;;;;;;;;;;10.80;99.90;;;;;;5079395;28;20048;-76
2021/11/10 12:59:25;;;;;;;;;;;10.70;99.90;;;;;;5071900;28;19917;-76
2021/11/10 13:01:51;;;;;;;;;;;10.70;99.90;;;;;;5071020;28;19928;-76
2021/11/10 13:04:23;;;;;;;;;;;10.80;99.90;;;;;;5071557;28;19913;-76
2021/11/10 13:06:52;;;;;;;;;;;10.80;99.90;;;;;;5071938;28;19912;-77
2021/11/10 13:09:35;;;;;;;;;;;10.80;99.90;;;;;;5073129;28;19919;-76
2021/11/10 13:12:02;;;;;;;;;;;10.70;99.90;;;;;;5071330;28;19943;-76
2021/11/10 13:14:28;;;;;;;;;;;10.70;99.90;;;;;;5072963;28;19916;-77
2021/11/10 13:17:09;;;;;;;;;;;10.70;99.90;;;;;;5069984;28;20011;-76
2021/11/10 13:19:43;;;;;;;;;;;10.70;99.90;;;;;;5073140;28;20252;-76
2021/11/10 13:22:09;;;;;;;;;;;10.70;99.90;;;;;;5083842;28;20359;-76
2021/11/10 13:24:35;;;;;;;;;;;10.70;99.90;;;;;;5072374;28;19917;-76
2021/11/10 13:27:01;;;;;;;;;;;10.70;99.90;;;;;;5069782;28;19935;-76
2021/11/10 13:29:27;;;;;;;;;;;10.70;99.90;;;;;;5072480;28;19912;-76
2021/11/10 13:32:08;;;;;;;;;;;10.80;99.90;;;;;;5075459;28;19920;-76
2021/11/10 13:34:34;;;;;;;;;;;10.80;99.90;;;;;;5074376;28;19921;-76
2021/11/10 13:37:00;;;;;;;;;;;10.80;99.90;;;;;;5072949;28;19916;-76
2021/11/10 13:39:26;;;;;;;;;;;10.70;99.90;;;;;;5074637;28;19912;-76
2021/11/10 13:41:55;;;;;;;;;;;10.70;99.90;;;;;;5073115;28;20334;-76
2021/11/10 13:44:29;;;;;;;;;;;10.70;99.90;;;;;;5073362;28;19958;-90
2021/11/10 13:46:56;;;;;;;;;;;10.70;99.90;;;;;;5074301;28;19920;-76
2021/11/10 13:49:23;;;;;;;;;;;10.70;99.90;;;;;;5076281;28;20317;-76
2021/11/10 13:52:02;;;;;;;;;;;10.70;99.90;;;;;;5072170;28;19920;-76
2021/11/10 13:54:32;;;;;;;;;;;10.80;99.90;;;;;;5071676;28;20230;-76
2021/11/10 13:56:59;;;;;;;;;;;10.80;99.90;;;;;;5072416;28;19913;-76
2021/11/10 13:59:26;;;;;;;;;;;10.80;99.90;;;;;;5070359;28;19923;-76
2021/11/10 14:01:52;;;;;;;;;;;10.80;99.90;;;;;;5073996;28;20218;-76
2021/11/10 14:04:21;;;;;;;;;;;10.80;99.90;;;;;;5073807;28;19912;-76
2021/11/10 14:07:09;;;;;;;;;;;10.80;99.90;;;;;;5072563;28;19913;-76
2021/11/10 14:09:36;;;;;;;;;;;10.80;99.90;;;;;;5066019;28;20053;-76
2021/11/10 14:12:18;;;;;;;;;;;10.80;99.90;;;;;;5067828;28;19912;-76
2021/11/10 14:14:44;;;;;;;;;;;10.80;99.90;;;;;;5075363;28;20261;-76
2021/11/10 14:17:09;;;;;;;;;;;10.80;99.90;;;;;;5074341;28;19916;-76
2021/11/10 14:19:35;;;;;;;;;;;10.80;99.90;;;;;;5071045;28;19923;-77
2021/11/10 14:22:01;;;;;;;;;;;10.80;99.90;;;;;;5073231;28;19921;-76
2021/11/10 14:24:28;;;;;;;;;;;10.80;99.90;;;;;;5071031;28;19966;-76
2021/11/10 14:26:54;;;;;;;;;;;10.80;99.90;;;;;;5068721;28;19912;-76
2021/11/10 14:29:19;;;;;;;;;;;10.80;99.90;;;;;;5087015;28;19923;-76
2021/11/10 14:31:46;;;;;;;;;;;10.70;99.90;;;;;;5074306;28;20019;-76